Estación meteorológica de Cercs - La Baells (Berguedà, Cercs)

Consulta los datos en tiempo real de la estación meteorológica de Cercs - La Baells





Hora UTC 06:30
Temperatura 17.3 ºC
Humedad 84.3 %
Presión 1023.2 hPa
Pluja 0.0 mm
Velocidad viento 0.4 km/h
Dirección viento NNW

Datos diarios 2026-09-03



Hora UTC (invierno +1h; verano +2h)
DADES NO VALIDADES
Temperatura (ºC) Humedad (%) Presión (hPa) Velocidad viento (km/h) Precipitación (mm)
Hora UTC Aire Humedad Presión Vel. Dir. Vel. Max Dir. Intent. máx 5 min.
00:05 19.0 79.0 1023.2 0.3 NW 0.3 NW 0.0
00:10 18.8 81.0 1023.2 1.7 NW 1.7 NW 0.0
00:15 18.7 81.5 1023.2 2.0 NW 2.0 NW 0.0
00:20 18.4 82.6 1023.2 1.1 NNW 2.0 NW 0.0
00:25 18.4 82.8 1023.2 1.0 NNW 2.0 NW 0.0
00:30 18.3 83.7 1023.2 0.3 SSW 2.0 NW 0.0
00:35 18.2 83.9 1023.2 0.1 SSE 2.0 NW 0.0
00:40 18.2 83.1 1023.2 0.1 SSW 2.0 NW 0.0
00:45 18.2 82.9 1023.2 0.1 SSW 2.0 NW 0.0
00:50 18.2 81.9 1023.2 0.1 SSW 2.0 NW 0.0
00:55 18.3 81.7 1023.2 0.1 SSW 2.0 NW 0.0
01:00 18.4 81.7 1023.2 0.1 SW 2.0 NW 0.0
01:05 18.4 81.7 1023.2 0.1 WSW 2.0 NW 0.0
01:10 18.1 82.6 1023.2 0.0 WSW 2.0 NW 0.0
01:15 18.1 82.7 1023.2 0.0 SW 2.0 NW 0.0
01:20 18.0 83.4 1023.2 0.1 E 2.0 NW 0.0
01:25 18.0 83.6 1023.2 0.1 ENE 2.0 NW 0.0
01:30 18.0 83.9 1023.2 0.1 E 2.0 NW 0.0
01:35 18.1 83.9 1023.2 0.1 E 2.0 NW 0.0
01:40 17.9 84.5 1023.2 0.1 S 2.0 NW 0.0
01:45 17.9 84.6 1023.2 0.1 S 2.0 NW 0.0
01:50 18.0 83.5 1023.2 0.1 NW 2.0 NW 0.0
01:55 18.0 83.3 1023.2 0.1 NNW 2.0 NW 0.0
01:55 18.0 83.3 1023.2 0.1 NNW 2.0 NW 0.0
01:55 18.0 83.3 1023.2 0.1 NNW 2.0 NW 0.0
02:15 17.8 83.6 1022.2 0.0 N 2.0 NW 0.0
02:20 18.0 82.4 1022.2 0.2 W 2.0 NW 0.0
02:25 18.1 82.2 1022.2 0.2 NW 2.0 NW 0.0
02:30 17.9 82.7 1022.2 0.1 WNW 2.0 NW 0.0
02:35 17.9 82.8 1022.2 0.1 WNW 2.0 NW 0.0
02:40 17.9 82.7 1022.2 0.3 NW 2.0 NW 0.0
02:45 18.0 82.7 1022.2 0.3 NW 2.0 NW 0.0
02:50 17.9 83.3 1022.2 0.1 NW 2.0 NW 0.0
02:55 17.9 83.4 1022.2 0.1 NW 2.0 NW 0.0
03:00 17.8 83.7 1022.2 0.1 SSW 2.0 NW 0.0
03:05 17.8 83.8 1022.2 0.1 S 2.0 NW 0.0
03:10 17.6 84.2 1022.2 0.1 S 2.0 NW 0.0
03:15 17.6 84.3 1022.2 0.1 S 2.0 NW 0.0
03:20 17.4 85.9 1022.2 0.1 WNW 2.0 NW 0.0
03:25 17.3 86.2 1022.2 0.1 NW 2.0 NW 0.0
03:30 17.2 86.8 1022.2 0.1 SSW 2.0 NW 0.0
03:35 17.1 86.9 1022.2 0.1 S 2.0 NW 0.0
03:40 17.1 87.1 1022.2 0.1 NW 2.0 NW 0.0
03:45 17.1 87.1 1022.2 0.1 NNW 2.0 NW 0.0
03:50 17.2 87.0 1022.2 0.1 NNW 2.0 NW 0.0
03:55 17.2 87.0 1022.2 0.1 NNW 2.0 NW 0.0
04:00 17.2 86.1 1022.2 0.3 NNW 2.0 NW 0.0
04:05 17.3 85.9 1022.2 0.3 NNW 2.0 NW 0.0
04:10 17.2 86.0 1022.2 0.5 NNW 2.0 NW 0.0
04:15 17.2 86.0 1022.2 0.5 NNW 2.0 NW 0.0
04:20 17.3 85.1 1022.2 0.6 NNW 2.0 NW 0.0
04:25 17.3 84.9 1022.2 0.6 NNW 2.0 NW 0.0
04:30 17.2 85.8 1022.2 0.3 NNW 2.0 NW 0.0
04:35 17.2 85.9 1022.2 0.3 NNW 2.0 NW 0.0
04:40 17.2 86.0 1022.2 0.5 NNW 2.0 NW 0.0
04:45 17.2 86.0 1022.2 0.5 NNW 2.0 NW 0.0
04:50 17.1 86.5 1022.2 0.6 NW 2.0 NW 0.0
04:55 17.0 86.6 1022.2 0.7 NW 2.0 NW 0.0
05:00 17.1 85.8 1022.2 0.3 NNW 2.0 NW 0.0
05:05 17.1 85.6 1022.2 0.2 NNW 2.0 NW 0.0
05:10 17.1 85.9 1022.2 0.2 NW 2.0 NW 0.0
05:15 17.1 86.0 1022.2 0.2 NW 2.0 NW 0.0
05:20 16.9 87.1 1022.2 0.2 NNW 2.0 NW 0.0
05:25 16.9 87.3 1022.2 0.2 NNW 2.0 NW 0.0
05:30 16.9 86.9 1022.2 0.6 NNW 2.0 NW 0.0
05:35 16.9 86.8 1022.2 0.7 NNW 2.0 NW 0.0
05:40 16.9 85.8 1022.2 0.4 NNW 2.0 NW 0.0
05:45 16.9 85.6 1022.2 0.3 NNW 2.0 NW 0.0
05:50 16.9 86.2 1022.2 0.1 NW 2.0 NW 0.0
05:55 16.9 86.3 1022.2 0.1 NW 2.0 NW 0.0
06:00 16.8 87.6 1022.2 0.2 NW 2.0 NW 0.0
06:00 16.8 87.6 1022.2 0.2 NW 2.0 NW 0.0
06:10 16.8 87.3 1023.0 0.3 NNW 2.0 NW 0.0
06:15 16.8 87.2 1023.2 0.3 NNW 2.0 NW 0.0
06:20 17.0 85.8 1023.2 0.3 NNW 2.0 NW 0.0
06:25 17.1 85.4 1023.2 0.3 NNW 2.0 NW 0.0
06:30 17.3 84.3 1023.2 0.4 NNW 2.0 NW 0.0
Máxima 19.0 87.6 1023.2 2.0 NW 2.0 NW 0.0
Mínima 16.8 79.0 1022.2
Total 0.0